createdAt,value
2023-02-19T00:02:42.066Z,4.50
2023-02-19T00:05:27.450Z,4.60
2023-02-19T00:08:12.847Z,4.50
2023-02-19T00:11:07.783Z,4.50
2023-02-19T00:13:56.577Z,4.40
2023-02-19T00:16:43.315Z,4.40
2023-02-19T00:19:28.790Z,4.30
2023-02-19T00:22:14.448Z,4.30
2023-02-19T00:25:00.086Z,4.20
2023-02-19T00:27:45.953Z,4.20
2023-02-19T00:30:33.233Z,4.10
2023-02-19T00:33:18.748Z,4.10
2023-02-19T00:36:06.484Z,4.00
2023-02-19T00:38:52.746Z,4.00
2023-02-19T00:41:37.927Z,4.00
2023-02-19T00:44:23.406Z,4.00
2023-02-19T00:47:08.750Z,4.00
2023-02-19T00:49:54.089Z,4.00
2023-02-19T00:52:39.640Z,4.00
2023-02-19T00:55:25.150Z,4.00
2023-02-19T00:58:10.563Z,3.90
2023-02-19T01:00:56.057Z,3.90
2023-02-19T01:03:41.634Z,3.90
2023-02-19T01:06:27.200Z,4.00
2023-02-19T01:09:12.668Z,4.00
2023-02-19T01:12:00.602Z,4.00
2023-02-19T01:14:46.025Z,3.90
2023-02-19T01:17:31.502Z,3.90
2023-02-19T01:20:17.289Z,4.00
2023-02-19T01:23:02.442Z,4.00
2023-02-19T01:25:47.851Z,4.00
2023-02-19T01:28:34.354Z,4.00
2023-02-19T01:31:24.187Z,4.00
2023-02-19T01:34:11.769Z,4.10
2023-02-19T01:36:57.262Z,4.00
2023-02-19T01:39:42.608Z,4.00
2023-02-19T01:42:28.288Z,4.00
2023-02-19T01:45:25.783Z,4.00
2023-02-19T01:48:13.444Z,4.00
2023-02-19T01:51:20.412Z,4.00
2023-02-19T01:54:09.465Z,4.00
2023-02-19T01:56:55.990Z,4.00
2023-02-19T01:59:41.792Z,4.00
2023-02-19T02:02:27.327Z,4.00
2023-02-19T02:05:48.132Z,4.00
2023-02-19T02:08:34.356Z,4.10
2023-02-19T02:11:21.338Z,4.00
2023-02-19T02:14:07.064Z,4.00
2023-02-19T02:17:35.894Z,4.00
2023-02-19T02:20:41.754Z,4.00
2023-02-19T02:23:46.471Z,4.00
2023-02-19T02:27:11.342Z,4.00
2023-02-19T02:30:24.677Z,3.90
2023-02-19T02:33:28.045Z,3.80
2023-02-19T02:36:23.798Z,3.70
2023-02-19T02:39:17.529Z,3.60
2023-02-19T02:42:02.960Z,3.60
2023-02-19T02:44:48.140Z,3.60
2023-02-19T02:47:55.904Z,3.50
2023-02-19T02:51:10.665Z,3.40
2023-02-19T02:54:18.919Z,3.40
2023-02-19T02:57:07.180Z,3.30
2023-02-19T02:59:52.432Z,3.30
2023-02-19T03:02:39.214Z,3.20
2023-02-19T03:05:25.939Z,3.20
2023-02-19T03:08:42.219Z,3.20
2023-02-19T03:11:31.144Z,3.10
2023-02-19T03:14:23.349Z,3.10
2023-02-19T03:17:44.624Z,3.10
2023-02-19T03:20:31.997Z,3.00
2023-02-19T03:23:20.362Z,3.10
2023-02-19T03:26:06.190Z,3.10
2023-02-19T03:28:53.393Z,3.10
2023-02-19T03:31:40.630Z,3.10
2023-02-19T03:34:37.722Z,3.00
2023-02-19T03:38:11.539Z,3.00
2023-02-19T03:41:09.677Z,2.90
2023-02-19T03:44:40.025Z,2.90
2023-02-19T03:48:03.286Z,2.90
2023-02-19T03:51:26.614Z,2.90
2023-02-19T03:54:35.619Z,2.90
2023-02-19T03:57:44.438Z,3.00
2023-02-19T04:01:16.043Z,3.00
2023-02-19T04:04:15.304Z,3.00
2023-02-19T04:07:00.831Z,3.00
2023-02-19T04:09:50.179Z,2.90
2023-02-19T04:12:41.122Z,2.90
2023-02-19T04:15:32.307Z,2.90
2023-02-19T04:18:25.362Z,2.80
2023-02-19T04:21:11.942Z,2.80
2023-02-19T04:24:04.465Z,2.80
2023-02-19T04:26:50.082Z,2.70
2023-02-19T04:29:37.161Z,2.70
2023-02-19T04:32:23.905Z,2.60
2023-02-19T04:35:09.459Z,2.50
2023-02-19T04:37:54.884Z,2.50
2023-02-19T04:40:40.327Z,2.40
2023-02-19T04:43:25.642Z,2.40
2023-02-19T04:46:11.634Z,2.40
2023-02-19T04:48:56.945Z,2.40
2023-02-19T04:51:42.324Z,2.40
2023-02-19T04:54:27.753Z,2.40
2023-02-19T04:57:13.274Z,2.30
2023-02-19T04:59:58.768Z,2.30
2023-02-19T05:02:43.978Z,2.20
2023-02-19T05:05:29.457Z,2.20
2023-02-19T05:08:14.768Z,2.10
2023-02-19T05:11:02.480Z,2.10
2023-02-19T05:13:48.170Z,2.00
2023-02-19T05:16:33.746Z,2.00
2023-02-19T05:19:19.266Z,2.00
2023-02-19T05:22:04.603Z,2.00
2023-02-19T05:24:50.063Z,2.00
2023-02-19T05:27:35.465Z,1.90
2023-02-19T05:30:20.802Z,1.90
2023-02-19T05:33:06.193Z,1.90
2023-02-19T05:35:55.300Z,2.00
2023-02-19T05:38:42.223Z,2.00
2023-02-19T05:41:30.565Z,2.00
2023-02-19T05:44:16.020Z,2.00
2023-02-19T05:47:01.513Z,2.10
2023-02-19T05:49:46.849Z,2.10
2023-02-19T05:52:32.759Z,2.10
2023-02-19T05:55:18.425Z,2.20
2023-02-19T05:58:04.673Z,2.20
2023-02-19T06:00:50.436Z,2.20
2023-02-19T06:03:35.755Z,2.20
2023-02-19T06:06:21.895Z,2.30
2023-02-19T06:09:08.630Z,2.30
2023-02-19T06:11:54.278Z,2.40
2023-02-19T06:14:39.607Z,2.40
2023-02-19T06:17:25.093Z,2.40
2023-02-19T06:20:11.642Z,2.50
2023-02-19T06:22:57.028Z,2.50
2023-02-19T06:25:42.748Z,2.60
2023-02-19T06:28:28.181Z,2.70
2023-02-19T06:31:14.875Z,2.80
2023-02-19T06:34:05.307Z,2.80
2023-02-19T06:36:51.938Z,2.90
2023-02-19T06:39:38.780Z,3.00
2023-02-19T06:42:24.593Z,3.00
2023-02-19T06:45:10.219Z,3.10
2023-02-19T06:47:55.682Z,3.10
2023-02-19T06:50:41.188Z,3.20
2023-02-19T06:53:26.776Z,3.30
2023-02-19T06:56:35.276Z,3.30
2023-02-19T06:59:20.686Z,3.40
2023-02-19T07:02:06.226Z,3.50
2023-02-19T07:04:51.570Z,3.60
2023-02-19T07:07:37.276Z,4.10
2023-02-19T07:10:22.702Z,4.50
2023-02-19T07:13:08.159Z,4.60
2023-02-19T07:16:07.595Z,4.50
2023-02-19T07:18:57.416Z,4.30
2023-02-19T07:21:43.298Z,4.20
2023-02-19T07:24:28.824Z,4.10
2023-02-19T07:27:14.353Z,4.20
2023-02-19T07:29:59.860Z,4.30
2023-02-19T07:32:45.297Z,4.40
2023-02-19T07:35:30.681Z,4.40
2023-02-19T07:38:21.780Z,4.30
2023-02-19T07:41:07.578Z,4.10
2023-02-19T07:43:54.632Z,4.10
2023-02-19T07:46:40.322Z,4.00
2023-02-19T07:49:25.771Z,4.00
2023-02-19T07:52:11.261Z,4.00
2023-02-19T07:54:56.688Z,4.00
2023-02-19T07:57:42.604Z,4.20
2023-02-19T08:00:28.269Z,4.30
2023-02-19T08:03:13.840Z,4.30
2023-02-19T08:05:59.298Z,4.30
2023-02-19T08:08:44.605Z,4.40
2023-02-19T08:11:30.205Z,4.40
2023-02-19T08:14:17.289Z,4.30
2023-02-19T08:17:02.953Z,4.20
2023-02-19T08:19:48.935Z,4.30
2023-02-19T08:22:34.572Z,4.20
2023-02-19T08:25:20.050Z,4.30
2023-02-19T08:28:08.502Z,4.30
2023-02-19T08:31:00.950Z,4.30
2023-02-19T08:33:46.894Z,4.50
2023-02-19T08:36:32.237Z,4.60
2023-02-19T08:39:20.085Z,4.60
2023-02-19T08:42:07.181Z,4.60
2023-02-19T08:44:53.215Z,4.50
2023-02-19T08:47:39.564Z,4.50
2023-02-19T08:50:26.443Z,4.60
2023-02-19T08:53:12.274Z,4.70
2023-02-19T08:55:58.294Z,4.60
2023-02-19T08:58:44.398Z,4.60
2023-02-19T09:01:30.202Z,4.70
2023-02-19T09:04:16.278Z,4.80
2023-02-19T09:07:02.405Z,4.70
2023-02-19T09:09:48.092Z,4.70
2023-02-19T09:12:33.585Z,4.70
2023-02-19T09:15:19.926Z,4.70
2023-02-19T09:18:05.778Z,4.80
2023-02-19T09:20:52.416Z,4.80
2023-02-19T09:23:37.934Z,4.90
2023-02-19T09:26:23.429Z,5.00
2023-02-19T09:29:08.930Z,4.90
2023-02-19T09:31:59.333Z,4.90
2023-02-19T09:34:44.755Z,4.90
2023-02-19T09:37:30.295Z,4.90
2023-02-19T09:40:17.039Z,4.90
2023-02-19T09:43:15.527Z,5.00
2023-02-19T09:46:22.308Z,5.00
2023-02-19T09:49:22.841Z,4.90
2023-02-19T09:52:58.272Z,4.80
2023-02-19T09:55:45.153Z,4.80
2023-02-19T09:58:50.294Z,4.80
2023-02-19T10:01:39.543Z,4.70
2023-02-19T10:04:25.088Z,4.80
2023-02-19T10:07:25.892Z,4.70
2023-02-19T10:10:14.172Z,4.60
2023-02-19T10:13:31.037Z,4.60
2023-02-19T10:16:24.445Z,4.60
2023-02-19T10:19:12.546Z,4.70
2023-02-19T10:21:58.960Z,4.70
2023-02-19T10:24:45.527Z,4.90
2023-02-19T10:27:31.860Z,4.90
2023-02-19T10:30:33.448Z,5.00
2023-02-19T10:33:19.292Z,4.90
2023-02-19T10:36:39.211Z,4.90
2023-02-19T10:39:42.285Z,5.00
2023-02-19T10:42:27.777Z,5.00
2023-02-19T10:45:41.158Z,5.10
2023-02-19T10:48:49.481Z,5.20
2023-02-19T10:51:39.801Z,5.10
2023-02-19T10:54:32.666Z,5.20
2023-02-19T10:57:30.640Z,5.20
2023-02-19T11:00:15.915Z,5.20
2023-02-19T11:06:04.580Z,5.10
2023-02-19T11:09:01.481Z,5.20
2023-02-19T11:11:52.637Z,5.30
2023-02-19T11:14:43.759Z,5.40
2023-02-19T11:17:30.841Z,5.40
2023-02-19T11:20:17.867Z,5.40
2023-02-19T11:23:35.681Z,5.50
2023-02-19T11:26:30.372Z,5.50
2023-02-19T11:29:23.141Z,5.40
2023-02-19T11:32:21.053Z,5.40
2023-02-19T11:38:01.095Z,5.20
2023-02-19T11:41:44.803Z,5.10
2023-02-19T11:47:59.188Z,5.20
2023-02-19T11:53:28.939Z,5.20
2023-02-19T11:56:37.036Z,5.20
2023-02-19T12:02:34.663Z,5.20
2023-02-19T12:05:41.502Z,5.20
2023-02-19T12:08:35.555Z,5.10
2023-02-19T12:17:22.002Z,5.00
2023-02-19T12:20:55.841Z,5.00
2023-02-19T12:31:07.053Z,4.80
2023-02-19T12:35:01.911Z,4.90
2023-02-19T12:38:13.576Z,4.90
2023-02-19T12:41:39.702Z,5.00
2023-02-19T12:44:38.102Z,4.90
2023-02-19T12:47:32.484Z,4.90
2023-02-19T12:50:29.937Z,4.90
2023-02-19T12:58:54.975Z,4.90
2023-02-19T13:01:56.699Z,5.00
2023-02-19T13:04:58.016Z,5.00
2023-02-19T13:07:56.212Z,5.10
2023-02-19T13:11:01.600Z,5.20
2023-02-19T13:14:00.773Z,5.10
2023-02-19T13:16:52.840Z,5.10
2023-02-19T13:19:39.087Z,5.00
2023-02-19T13:22:59.243Z,5.00
2023-02-19T13:26:00.578Z,5.00
2023-02-19T13:29:20.190Z,4.90
2023-02-19T13:33:06.506Z,4.90
2023-02-19T13:36:25.031Z,4.90
2023-02-19T13:42:06.573Z,4.80
2023-02-19T13:44:57.078Z,4.80
2023-02-19T13:47:55.973Z,4.70
2023-02-19T13:50:42.018Z,4.70
2023-02-19T13:53:42.954Z,4.70
2023-02-19T13:56:31.547Z,4.70
2023-02-19T13:59:38.009Z,4.70
2023-02-19T14:02:23.610Z,4.60
2023-02-19T14:05:12.167Z,4.70
2023-02-19T14:07:57.608Z,4.60
2023-02-19T14:10:56.262Z,4.60
2023-02-19T14:13:50.900Z,4.60
2023-02-19T14:16:36.551Z,4.60
2023-02-19T14:19:43.674Z,4.60
2023-02-19T14:22:47.267Z,4.60
2023-02-19T14:25:48.991Z,4.60
2023-02-19T14:28:34.532Z,4.50
2023-02-19T14:31:33.326Z,4.50
2023-02-19T14:34:23.354Z,4.50
2023-02-19T14:37:19.869Z,4.50
2023-02-19T14:40:06.134Z,4.50
2023-02-19T14:42:57.302Z,4.50
2023-02-19T14:46:20.882Z,4.50
2023-02-19T14:49:49.543Z,4.40
2023-02-19T14:52:59.944Z,4.40
2023-02-19T14:55:47.229Z,4.40
2023-02-19T14:58:33.835Z,4.40
2023-02-19T15:01:28.252Z,4.30
2023-02-19T15:04:28.692Z,4.30
2023-02-19T15:07:25.288Z,4.30
2023-02-19T15:10:14.709Z,4.30
2023-02-19T15:13:07.962Z,4.30
2023-02-19T15:15:54.219Z,4.30
2023-02-19T15:18:40.108Z,4.30
2023-02-19T15:21:31.564Z,4.20
2023-02-19T15:24:18.642Z,4.20
2023-02-19T15:27:25.357Z,4.20
2023-02-19T15:30:28.847Z,4.20
2023-02-19T15:33:20.201Z,4.20
2023-02-19T15:36:09.801Z,4.20
2023-02-19T15:38:59.561Z,4.20
2023-02-19T15:41:55.695Z,4.10
2023-02-19T15:45:25.019Z,4.10
2023-02-19T15:48:19.761Z,4.10
2023-02-19T15:51:23.843Z,4.10
2023-02-19T15:54:31.244Z,4.00
2023-02-19T15:57:25.854Z,4.00
2023-02-19T16:00:21.667Z,4.00
2023-02-19T16:03:21.974Z,4.00
2023-02-19T16:06:18.017Z,4.00
2023-02-19T16:09:21.418Z,4.00
2023-02-19T16:12:25.143Z,4.00
2023-02-19T16:15:15.180Z,4.00
2023-02-19T16:18:01.159Z,4.00
2023-02-19T16:20:48.264Z,3.90
2023-02-19T16:23:35.163Z,3.90
2023-02-19T16:26:22.061Z,3.90
2023-02-19T16:29:22.546Z,3.90
2023-02-19T16:32:17.133Z,3.90
2023-02-19T16:35:04.233Z,3.90
2023-02-19T16:37:59.843Z,3.80
2023-02-19T16:40:53.520Z,3.80
2023-02-19T16:43:43.609Z,3.80
2023-02-19T16:46:30.796Z,3.80
2023-02-19T16:49:17.099Z,3.80
2023-02-19T16:52:04.622Z,3.80
2023-02-19T16:54:50.646Z,3.80
2023-02-19T16:57:35.915Z,3.70
2023-02-19T17:00:47.601Z,3.60
2023-02-19T17:03:35.047Z,3.60
2023-02-19T17:06:21.098Z,3.50
2023-02-19T17:09:09.181Z,3.50
2023-02-19T17:11:55.231Z,3.50
2023-02-19T17:14:41.253Z,3.40
2023-02-19T17:17:27.158Z,3.40
2023-02-19T17:20:28.071Z,3.40
2023-02-19T17:23:14.141Z,3.40
2023-02-19T17:25:59.554Z,3.40
2023-02-19T17:28:45.139Z,3.40
2023-02-19T17:31:37.265Z,3.40
2023-02-19T17:34:49.938Z,3.40
2023-02-19T17:37:36.731Z,3.40
2023-02-19T17:40:33.249Z,3.50
2023-02-19T17:43:19.241Z,3.50
2023-02-19T17:46:05.443Z,3.50
2023-02-19T17:48:52.233Z,3.50
2023-02-19T17:51:38.384Z,3.50
2023-02-19T17:54:24.724Z,3.50
2023-02-19T17:57:11.099Z,3.50
2023-02-19T17:59:56.935Z,3.50
2023-02-19T18:02:42.766Z,3.60
2023-02-19T18:05:38.933Z,3.60
2023-02-19T18:08:24.290Z,3.60
2023-02-19T18:11:09.760Z,3.60
2023-02-19T18:13:55.551Z,3.60
2023-02-19T18:16:50.774Z,3.50
2023-02-19T18:19:36.547Z,3.40
2023-02-19T18:22:22.236Z,3.30
2023-02-19T18:25:09.495Z,3.20
2023-02-19T18:27:55.786Z,3.10
2023-02-19T18:30:41.516Z,3.00
2023-02-19T18:33:27.266Z,2.90
2023-02-19T18:36:13.248Z,2.80
2023-02-19T18:38:59.102Z,2.70
2023-02-19T18:41:51.948Z,2.60
2023-02-19T18:44:38.320Z,2.60
2023-02-19T18:47:25.618Z,2.50
2023-02-19T18:50:11.566Z,2.50
2023-02-19T18:52:56.968Z,2.40
2023-02-19T18:55:42.735Z,2.40
2023-02-19T18:58:28.574Z,2.30
2023-02-19T19:01:14.809Z,2.30
2023-02-19T19:04:00.814Z,2.20
2023-02-19T19:06:46.265Z,2.20
2023-02-19T19:09:32.594Z,2.20
2023-02-19T19:12:18.308Z,2.20
2023-02-19T19:15:04.359Z,2.20
2023-02-19T19:17:50.613Z,2.30
2023-02-19T19:20:36.371Z,2.30
2023-02-19T19:23:21.805Z,2.30
2023-02-19T19:26:08.408Z,2.40
2023-02-19T19:28:54.312Z,2.40
2023-02-19T19:31:39.956Z,2.40
2023-02-19T19:34:26.023Z,2.40
2023-02-19T19:37:11.593Z,2.40
2023-02-19T19:39:57.499Z,2.40
2023-02-19T19:42:44.516Z,2.40
2023-02-19T19:45:30.459Z,2.40
2023-02-19T19:51:01.578Z,2.40
2023-02-19T19:53:49.025Z,2.30
2023-02-19T19:56:42.094Z,2.30
2023-02-19T19:59:28.390Z,2.30
2023-02-19T20:02:14.273Z,2.20
2023-02-19T20:05:00.120Z,2.10
2023-02-19T20:07:46.153Z,2.10
2023-02-19T20:10:32.017Z,2.00
2023-02-19T20:13:20.850Z,1.90
2023-02-19T20:16:06.558Z,1.90
2023-02-19T20:18:52.738Z,1.80
2023-02-19T20:21:38.668Z,1.80
2023-02-19T20:24:27.601Z,1.80
2023-02-19T20:27:13.000Z,1.70
2023-02-19T20:29:58.342Z,1.60
2023-02-19T20:32:44.437Z,1.60
2023-02-19T20:35:30.280Z,1.50
2023-02-19T20:38:16.545Z,1.50
2023-02-19T20:41:03.304Z,1.40
2023-02-19T20:43:48.638Z,1.40
2023-02-19T20:46:44.570Z,1.40
2023-02-19T20:49:31.927Z,1.40
2023-02-19T20:52:19.289Z,1.40
2023-02-19T20:55:05.489Z,1.30
2023-02-19T20:57:51.000Z,1.30
2023-02-19T21:00:37.186Z,1.30
2023-02-19T21:03:22.901Z,1.20
2023-02-19T21:06:08.815Z,1.20
2023-02-19T21:08:54.818Z,1.20
2023-02-19T21:11:40.344Z,1.20
2023-02-19T21:14:25.943Z,1.10
2023-02-19T21:17:11.717Z,1.10
2023-02-19T21:19:57.650Z,1.10
2023-02-19T21:22:43.895Z,1.00
2023-02-19T21:25:29.475Z,1.00
2023-02-19T21:28:15.367Z,1.00
2023-02-19T21:31:00.898Z,0.90
2023-02-19T21:33:47.156Z,0.90
2023-02-19T21:36:32.755Z,0.90
2023-02-19T21:39:22.402Z,0.80
2023-02-19T21:42:11.556Z,0.80
2023-02-19T21:44:59.355Z,0.80
2023-02-19T21:47:49.899Z,0.80
2023-02-19T21:50:43.946Z,0.70
2023-02-19T21:53:30.554Z,0.70
2023-02-19T21:56:29.813Z,0.70
2023-02-19T21:59:16.082Z,0.70
2023-02-19T22:02:01.825Z,0.70
2023-02-19T22:04:52.853Z,0.60
2023-02-19T22:07:38.596Z,0.60
2023-02-19T22:10:24.262Z,0.60
2023-02-19T22:13:10.921Z,0.60
2023-02-19T22:16:03.294Z,0.60
2023-02-19T22:18:54.819Z,0.50
2023-02-19T22:21:45.165Z,0.50
2023-02-19T22:24:34.505Z,0.50
2023-02-19T22:27:20.178Z,0.50
2023-02-19T22:30:07.603Z,0.50
2023-02-19T22:32:53.892Z,0.40
2023-02-19T22:35:39.821Z,0.40
2023-02-19T22:38:25.671Z,0.40
2023-02-19T22:41:11.656Z,0.50
2023-02-19T22:43:59.207Z,0.50
2023-02-19T22:46:55.694Z,0.50
2023-02-19T22:49:42.550Z,0.40
2023-02-19T22:52:29.280Z,0.30
2023-02-19T22:55:14.812Z,0.30
2023-02-19T22:58:00.746Z,0.30
2023-02-19T23:00:47.143Z,0.20
2023-02-19T23:03:33.304Z,0.30
2023-02-19T23:06:26.981Z,0.20
2023-02-19T23:09:38.928Z,0.20
2023-02-19T23:12:24.688Z,0.20
2023-02-19T23:15:10.806Z,0.20
2023-02-19T23:17:56.344Z,0.10
2023-02-19T23:20:41.753Z,0.10
2023-02-19T23:23:27.262Z,0.00
2023-02-19T23:26:15.745Z,0.00
2023-02-19T23:29:02.175Z,0.00
2023-02-19T23:31:47.775Z,0.00
2023-02-19T23:34:33.616Z,0.00
2023-02-19T23:37:19.296Z,0.00
2023-02-19T23:40:06.832Z,0.00
2023-02-19T23:43:03.093Z,0.00
2023-02-19T23:45:50.102Z,0.00
2023-02-19T23:48:35.806Z,0.00
2023-02-19T23:51:21.266Z,0.00
2023-02-19T23:54:07.442Z,0.00
2023-02-19T23:56:53.140Z,0.00
2023-02-19T23:59:38.687Z,0.00
